Terminal Aerodrome Forecast
Issued by NWS

Home | Current Version | Previous Version | Text Only | Print | Product List | Glossary On
Versions: 1 2 3 4 5 6 7 8 9 10 11 12 13 14 15 16 17 18 19 20 21 22 23 24 25 26 27 28 29 30 31
000
FTUS45 KGJT 011122
TAFMTJ
TAF
KMTJ 011122Z 0112/0212 14008KT P6SM SCT200
     FM011600 33005KT P6SM FEW110 SCT200
     FM012100 29007KT P6SM VCTS BKN100CB OVC150
     FM020300 13010KT P6SM VCSH BKN100
     FM020600 14006KT P6SM FEW100 BKN200=

USA.gov is the U.S. government's official web portal to all federal, state and local government web resources and services.